aviador You're here:

KFKL Decoded Metar

FRANKLIN in PA, USA
Report Time2018-07-23 15:18:00
UTC Time2018-07-23 15:38:58
Flight Rules mvfr MVFR
Wind150° at 11 Gusting to 16 kt
W.Decomp.*RWY 12: 8.4 kt HW 7.1 kt RCW
RWY 21: 7.1 kt HW 8.4 kt LCW
W.Rank150° ranks 20
Current wind is above 150° avg. (7.1)
Visibility9999 m
Phenomena:N/A
Clouds:Overcast 015 Hf
Expected CloudBase > 1,600 ft AGL from Temp-Dew spread
Ceiling1,500 ft
Temp24°C (ISA +12)
Dew Point20°C (78% RH)
AAT23.7°C
QNH1015 hPa
Density Alt3,182 ft
Elevation1,539 ft
Report Wrong Elevation
Raw Report
KFKL 231518Z AUTO 15011G16KT 10SM OVC015 24/20 A2997 RMK AO2=

Extra information for KFKL:More info

Metar Taf Metar & Taf Last 4 Metars F.Rules Stats Wind Profile Meteogram Temp Stats Airport Information Weather charts Add Link Nearby VenuesMetar ALERT Operation Metar Decoded Social comments

AIRNAV info for KFKL